Terminal Aerodrome Forecast
Issued by NWS

Home | Current Version | Previous Version | Text Only | Print | Product List | Glossary Off
Versions: 1 2 3 4 5 6 7 8 9 10 11 12 13 14 15 16 17 18 19 20 21 22 23 24 25 26 27 28 29 30 31 32 33 34

000
FTUS45 KGGW 032300
TAFGDV
TAF
KGDV 032333Z 0400/0424 13008KT 6SM FU SCT070
     FM040300 12006KT 4SM FU SCT200
     FM041400 20006KT 6SM HZ SCT250
      AMD LTD TO CLD VIS AND WIND=

USA.gov is the U.S. government's official web portal to all federal, state and local government web resources and services.